createdAt,value
2019-04-18T00:00:17.850Z,14.6
2019-04-18T00:01:19.235Z,14.6
2019-04-18T00:02:20.580Z,14.6
2019-04-18T00:03:21.934Z,14.5
2019-04-18T00:04:23.297Z,14.6
2019-04-18T00:05:24.699Z,14.5
2019-04-18T00:06:26.049Z,14.6
2019-04-18T00:07:27.408Z,14.6
2019-04-18T00:08:28.774Z,14.5
2019-04-18T00:09:30.155Z,14.4
2019-04-18T00:10:31.510Z,14.3
2019-04-18T00:11:32.863Z,14.4
2019-04-18T00:12:34.298Z,14.3
2019-04-18T00:13:35.639Z,14.3
2019-04-18T00:14:49.610Z,14.2
2019-04-18T00:15:39.164Z,14.0
2019-04-18T00:16:39.707Z,14.1
2019-04-18T00:17:41.072Z,14.2
2019-04-18T00:18:42.432Z,14.1
2019-04-18T00:19:46.341Z,14.1
2019-04-18T00:20:47.456Z,14.1
2019-04-18T00:21:49.387Z,13.9
2019-04-18T00:22:47.827Z,13.8
2019-04-18T00:23:49.173Z,13.8
2019-04-18T00:24:50.538Z,13.8
2019-04-18T00:25:51.889Z,14.0
2019-04-18T00:26:53.239Z,13.9
2019-04-18T00:27:54.637Z,13.9
2019-04-18T00:28:56.027Z,14.0
2019-04-18T00:29:59.838Z,13.9
2019-04-18T00:30:59.789Z,13.8
2019-04-18T00:32:00.062Z,13.8
2019-04-18T00:33:01.329Z,13.9
2019-04-18T00:34:13.454Z,13.9
2019-04-18T00:35:04.015Z,13.9
2019-04-18T00:36:05.357Z,13.9
2019-04-18T00:37:07.127Z,13.9
2019-04-18T00:38:08.548Z,13.9
2019-04-18T00:39:09.362Z,13.9
2019-04-18T00:40:11.630Z,13.8
2019-04-18T00:41:13.057Z,13.8
2019-04-18T00:42:13.344Z,13.8
2019-04-18T00:43:14.688Z,13.8
2019-04-18T00:44:16.049Z,13.8
2019-04-18T00:45:17.404Z,13.7
2019-04-18T00:46:18.758Z,13.7
2019-04-18T00:47:21.600Z,13.6
2019-04-18T00:48:22.780Z,13.7
2019-04-18T00:49:22.780Z,13.6
2019-04-18T00:50:24.139Z,13.7
2019-04-18T00:51:25.488Z,13.6
2019-04-18T00:52:26.841Z,13.6
2019-04-18T00:53:28.203Z,13.7
2019-04-18T00:54:29.552Z,13.5
2019-04-18T00:55:30.913Z,13.6
2019-04-18T00:56:33.995Z,13.5
2019-04-18T00:57:33.588Z,13.5
2019-04-18T00:58:34.933Z,13.6
2019-04-18T00:59:36.299Z,13.5
2019-04-18T01:00:37.914Z,13.6
2019-04-18T01:01:41.773Z,13.6
2019-04-18T01:02:41.038Z,13.6
2019-04-18T01:03:42.388Z,13.5
2019-04-18T01:04:43.750Z,13.6
2019-04-18T01:05:45.113Z,13.6
2019-04-18T01:06:48.841Z,13.7
2019-04-18T01:07:47.798Z,13.7
2019-04-18T01:08:49.150Z,13.7
2019-04-18T01:09:50.508Z,13.6
2019-04-18T01:10:51.861Z,13.6
2019-04-18T01:11:55.591Z,13.6
2019-04-18T01:12:54.533Z,13.6
2019-04-18T01:13:55.890Z,13.6
2019-04-18T01:14:57.244Z,13.6
2019-04-18T01:15:58.601Z,13.6
2019-04-18T01:17:03.385Z,13.7
2019-04-18T01:18:01.278Z,13.6
2019-04-18T01:19:03.074Z,13.6
2019-04-18T01:20:04.166Z,13.6
2019-04-18T01:21:06.118Z,13.6
2019-04-18T01:22:08.366Z,13.5
2019-04-18T01:23:07.949Z,13.5
2019-04-18T01:24:09.275Z,13.6
2019-04-18T01:25:10.773Z,13.5
2019-04-18T01:26:14.261Z,13.5
2019-04-18T01:27:15.607Z,13.4
2019-04-18T01:28:54.974Z,13.5
2019-04-18T01:29:56.315Z,13.3
2019-04-18T01:30:58.586Z,13.4
2019-04-18T01:31:58.983Z,13.5
2019-04-18T01:33:03.185Z,13.5
2019-04-18T01:34:01.753Z,13.5
2019-04-18T01:35:02.992Z,13.5
2019-04-18T01:36:04.678Z,13.4
2019-04-18T01:37:05.655Z,13.5
2019-04-18T01:38:08.754Z,13.4
2019-04-18T01:39:13.755Z,13.5
2019-04-18T01:40:10.311Z,13.3
2019-04-18T01:41:11.655Z,13.3
2019-04-18T01:42:13.011Z,13.4
2019-04-18T01:43:14.368Z,13.3
2019-04-18T01:44:15.716Z,13.3
2019-04-18T01:45:19.144Z,13.2
2019-04-18T01:46:19.934Z,13.1
2019-04-18T01:47:19.695Z,13.0
2019-04-18T01:48:21.060Z,13.1
2019-04-18T01:49:22.412Z,13.0
2019-04-18T01:50:23.780Z,12.9
2019-04-18T01:51:25.125Z,12.8
2019-04-18T01:52:26.915Z,12.8
2019-04-18T01:53:29.116Z,12.9
2019-04-18T01:54:29.120Z,13.0
2019-04-18T01:55:30.464Z,13.1
2019-04-18T01:56:31.825Z,13.1
2019-04-18T01:57:33.175Z,13.1
2019-04-18T01:58:34.852Z,13.0
2019-04-18T01:59:37.795Z,12.9
2019-04-18T02:00:37.159Z,12.8
2019-04-18T02:01:38.519Z,12.7
2019-04-18T02:02:39.870Z,12.7
2019-04-18T02:03:41.235Z,12.6
2019-04-18T02:04:59.789Z,12.6
2019-04-18T02:05:43.899Z,12.5
2019-04-18T02:06:45.244Z,12.5
2019-04-18T02:07:46.702Z,12.5
2019-04-18T02:08:51.591Z,12.5
2019-04-18T02:09:49.227Z,12.4
2019-04-18T02:10:50.585Z,12.4
2019-04-18T02:11:51.936Z,12.4
2019-04-18T02:12:53.296Z,12.4
2019-04-18T02:13:54.644Z,12.5
2019-04-18T02:14:58.911Z,12.5
2019-04-18T02:15:57.309Z,12.5
2019-04-18T02:16:58.660Z,12.5
2019-04-18T02:18:01.073Z,12.4
2019-04-18T02:19:01.860Z,12.5
2019-04-18T02:20:03.467Z,12.7
2019-04-18T02:21:07.461Z,12.7
2019-04-18T02:22:05.848Z,12.8
2019-04-18T02:23:06.671Z,12.7
2019-04-18T02:24:07.956Z,12.8
2019-04-18T02:25:09.755Z,12.8
2019-04-18T02:26:14.761Z,12.9
2019-04-18T02:27:11.895Z,12.8
2019-04-18T02:28:13.247Z,12.8
2019-04-18T02:29:14.600Z,12.8
2019-04-18T02:30:20.860Z,12.6
2019-04-18T02:31:17.270Z,12.6
2019-04-18T02:32:18.640Z,12.6
2019-04-18T02:33:19.995Z,12.4
2019-04-18T02:34:21.351Z,12.4
2019-04-18T02:35:23.152Z,12.4
2019-04-18T02:36:24.041Z,12.4
2019-04-18T02:37:25.394Z,12.3
2019-04-18T02:38:26.741Z,12.4
2019-04-18T02:39:28.454Z,12.4
2019-04-18T02:40:31.164Z,12.3
2019-04-18T02:41:30.727Z,12.3
2019-04-18T02:42:32.085Z,12.2
2019-04-18T02:43:33.645Z,12.2
2019-04-18T02:44:34.994Z,12.4
2019-04-18T02:45:36.350Z,12.2
2019-04-18T02:46:37.705Z,12.2
2019-04-18T02:47:39.245Z,12.2
2019-04-18T02:48:40.587Z,12.1
2019-04-18T02:49:41.932Z,12.1
2019-04-18T02:50:43.370Z,12.1
2019-04-18T02:51:44.609Z,12.2
2019-04-18T02:52:45.951Z,12.1
2019-04-18T02:53:47.305Z,12.2
2019-04-18T02:54:48.651Z,12.2
2019-04-18T02:55:51.308Z,12.2
2019-04-18T02:56:54.073Z,12.2
2019-04-18T02:57:52.631Z,12.2
2019-04-18T02:58:53.987Z,12.2
2019-04-18T02:59:55.341Z,12.1
2019-04-18T03:00:57.011Z,12.2
2019-04-18T03:02:01.111Z,12.0
2019-04-18T03:02:59.330Z,11.9
2019-04-18T03:04:00.786Z,12.0
2019-04-18T03:05:02.462Z,11.9
2019-04-18T03:06:03.309Z,12.0
2019-04-18T03:07:04.665Z,11.9
2019-04-18T03:08:06.136Z,12.0
2019-04-18T03:09:07.335Z,11.9
2019-04-18T03:10:10.117Z,11.9
2019-04-18T03:11:10.409Z,11.9
2019-04-18T03:12:11.310Z,11.9
2019-04-18T03:13:12.661Z,12.1
2019-04-18T03:14:14.004Z,12.0
2019-04-18T03:15:18.641Z,12.0
2019-04-18T03:16:16.681Z,12.1
2019-04-18T03:17:18.032Z,12.0
2019-04-18T03:18:19.382Z,11.9
2019-04-18T03:19:20.739Z,11.9
2019-04-18T03:20:22.095Z,11.9
2019-04-18T03:21:25.640Z,11.9
2019-04-18T03:22:24.770Z,11.9
2019-04-18T03:23:26.126Z,11.9
2019-04-18T03:24:27.482Z,11.9
2019-04-18T03:25:28.829Z,11.8
2019-04-18T03:26:30.181Z,11.8
2019-04-18T03:27:34.337Z,11.9
2019-04-18T03:28:32.846Z,11.9
2019-04-18T03:29:34.205Z,12.0
2019-04-18T03:30:35.562Z,12.0
2019-04-18T03:31:36.907Z,12.0
2019-04-18T03:32:38.756Z,12.0
2019-04-18T03:33:44.207Z,12.0
2019-04-18T03:34:43.317Z,11.9
2019-04-18T03:35:48.824Z,11.9
2019-04-18T03:36:43.510Z,11.9
2019-04-18T03:37:44.879Z,11.9
2019-04-18T03:38:46.216Z,11.8
2019-04-18T03:39:48.038Z,11.8
2019-04-18T03:40:48.890Z,11.9
2019-04-18T03:41:50.245Z,11.8
2019-04-18T03:42:51.595Z,11.7
2019-04-18T03:43:52.950Z,11.7
2019-04-18T03:44:54.300Z,11.7
2019-04-18T03:45:56.337Z,11.6
2019-04-18T03:46:57.873Z,11.6
2019-04-18T03:48:00.292Z,11.6
2019-04-18T03:48:59.589Z,11.6
2019-04-18T03:50:00.950Z,11.7
2019-04-18T03:51:05.546Z,11.8
2019-04-18T03:52:03.616Z,11.9
2019-04-18T03:53:04.974Z,12.0
2019-04-18T03:54:07.146Z,11.9
2019-04-18T03:55:07.630Z,11.9
2019-04-18T03:56:08.982Z,11.9
2019-04-18T03:57:10.769Z,11.9
2019-04-18T03:58:11.837Z,11.9
2019-04-18T03:59:16.958Z,11.9
2019-04-18T04:00:14.624Z,11.8
2019-04-18T04:01:15.597Z,11.8
2019-04-18T04:02:17.042Z,11.8
2019-04-18T04:03:18.387Z,11.8
2019-04-18T04:04:22.520Z,11.8
2019-04-18T04:05:23.849Z,11.9
2019-04-18T04:06:22.387Z,11.7
2019-04-18T04:07:25.743Z,11.9
2019-04-18T04:08:30.308Z,11.9
2019-04-18T04:09:26.551Z,12.0
2019-04-18T04:10:27.895Z,12.0
2019-04-18T04:11:29.251Z,12.0
2019-04-18T04:12:30.610Z,12.1
2019-04-18T04:13:32.976Z,12.1
2019-04-18T04:14:33.285Z,12.1
2019-04-18T04:15:34.626Z,12.1
2019-04-18T04:16:35.985Z,12.1
2019-04-18T04:17:37.339Z,12.0
2019-04-18T04:18:38.807Z,12.1
2019-04-18T04:19:40.018Z,12.1
2019-04-18T04:20:41.377Z,12.0
2019-04-18T04:21:42.722Z,12.0
2019-04-18T04:22:44.077Z,12.0
2019-04-18T04:23:45.436Z,12.0
2019-04-18T04:24:46.796Z,11.9
2019-04-18T04:25:48.151Z,11.9
2019-04-18T04:26:49.510Z,11.9
2019-04-18T04:27:54.292Z,12.0
2019-04-18T04:28:52.204Z,12.0
2019-04-18T04:29:53.552Z,12.0
2019-04-18T04:30:54.910Z,12.0
2019-04-18T04:31:57.047Z,12.0
2019-04-18T04:32:57.879Z,12.0
2019-04-18T04:33:58.905Z,11.9
2019-04-18T04:35:00.272Z,12.0
2019-04-18T04:36:01.874Z,12.0
2019-04-18T04:37:06.233Z,12.0
2019-04-18T04:38:04.345Z,12.1
2019-04-18T04:39:05.567Z,12.1
2019-04-18T04:40:07.004Z,12.1
2019-04-18T04:41:08.243Z,12.2
2019-04-18T04:42:11.776Z,12.2
2019-04-18T04:43:10.913Z,12.4
2019-04-18T04:44:12.267Z,12.2
2019-04-18T04:45:13.627Z,12.3
2019-04-18T04:46:14.984Z,12.3
2019-04-18T04:47:17.952Z,12.3
2019-04-18T04:48:21.957Z,12.3
2019-04-18T04:49:19.002Z,12.4
2019-04-18T04:50:20.355Z,12.3
2019-04-18T04:51:21.713Z,12.3
2019-04-18T04:52:26.739Z,12.3
2019-04-18T04:53:24.393Z,12.3
2019-04-18T04:54:25.749Z,12.3
2019-04-18T04:55:27.101Z,12.3
2019-04-18T04:56:28.459Z,12.3
2019-04-18T04:57:29.819Z,12.3
2019-04-18T04:58:35.258Z,12.3
2019-04-18T04:59:32.498Z,12.4
2019-04-18T05:00:33.852Z,12.4
2019-04-18T05:01:35.202Z,12.6
2019-04-18T05:02:37.198Z,12.6
2019-04-18T05:03:37.889Z,12.6
2019-04-18T05:04:39.248Z,12.6
2019-04-18T05:05:42.319Z,12.5
2019-04-18T05:06:43.664Z,12.5
2019-04-18T05:07:43.261Z,12.5
2019-04-18T05:08:44.617Z,12.5
2019-04-18T05:09:45.980Z,12.5
2019-04-18T05:10:47.859Z,12.6
2019-04-18T05:11:51.121Z,12.4
2019-04-18T05:12:50.000Z,12.4
2019-04-18T05:13:51.353Z,12.5
2019-04-18T05:14:52.706Z,12.4
2019-04-18T05:15:54.619Z,12.5
2019-04-18T05:16:55.391Z,12.5
2019-04-18T05:17:56.762Z,12.5
2019-04-18T05:18:58.112Z,12.5
2019-04-18T05:19:59.472Z,12.6
2019-04-18T05:21:01.665Z,12.5
2019-04-18T05:22:02.157Z,12.5
2019-04-18T05:23:03.514Z,12.5
2019-04-18T05:24:04.875Z,12.5
2019-04-18T05:25:09.825Z,12.4
2019-04-18T05:26:07.552Z,12.5
2019-04-18T05:27:09.082Z,12.4
2019-04-18T05:28:11.046Z,12.4
2019-04-18T05:29:14.163Z,12.4
2019-04-18T05:30:13.162Z,12.4
2019-04-18T05:31:19.446Z,12.5
2019-04-18T05:32:15.747Z,12.4
2019-04-18T05:33:17.581Z,12.5
2019-04-18T05:34:18.558Z,12.4
2019-04-18T05:35:22.876Z,12.5
2019-04-18T05:36:22.760Z,12.5
2019-04-18T05:37:22.400Z,12.7
2019-04-18T05:38:23.876Z,12.6
2019-04-18T05:39:30.153Z,12.7
2019-04-18T05:40:26.406Z,12.6
2019-04-18T05:41:27.760Z,12.5
2019-04-18T05:42:29.107Z,12.5
2019-04-18T05:43:30.460Z,12.5
2019-04-18T05:44:34.694Z,12.5
2019-04-18T05:45:33.143Z,12.6
2019-04-18T05:46:34.511Z,12.6
2019-04-18T05:47:35.883Z,12.5
2019-04-18T05:48:37.240Z,12.5
2019-04-18T05:49:38.599Z,12.5
2019-04-18T05:50:42.235Z,12.6
2019-04-18T05:51:41.274Z,12.6
2019-04-18T05:52:42.667Z,12.6
2019-04-18T05:53:44.050Z,12.5
2019-04-18T05:54:47.433Z,12.5
2019-04-18T05:55:46.714Z,12.5
2019-04-18T05:56:48.073Z,12.5
2019-04-18T05:57:49.453Z,12.5
2019-04-18T05:58:50.808Z,12.5
2019-04-18T05:59:54.473Z,12.5
2019-04-18T06:00:53.508Z,12.5
2019-04-18T06:01:54.872Z,12.5
2019-04-18T06:02:56.247Z,12.5
2019-04-18T06:04:00.253Z,12.5
2019-04-18T06:04:58.921Z,12.4
2019-04-18T06:06:00.294Z,12.5
2019-04-18T06:07:12.138Z,12.7
2019-04-18T06:08:02.979Z,12.6
2019-04-18T06:09:04.468Z,12.7
2019-04-18T06:10:05.646Z,12.8
2019-04-18T06:11:07.016Z,12.8
2019-04-18T06:12:11.163Z,12.8
2019-04-18T06:13:09.717Z,12.8
2019-04-18T06:14:11.302Z,12.8
2019-04-18T06:15:16.060Z,12.8
2019-04-18T06:16:13.712Z,12.8
2019-04-18T06:17:15.084Z,12.8
2019-04-18T06:18:16.423Z,12.9
2019-04-18T06:19:22.520Z,12.8
2019-04-18T06:20:19.112Z,12.8
2019-04-18T06:21:20.467Z,12.8
2019-04-18T06:22:21.833Z,12.8
2019-04-18T06:23:27.059Z,12.8
2019-04-18T06:24:26.036Z,12.9
2019-04-18T06:25:30.199Z,12.9
2019-04-18T06:26:32.730Z,13.0
2019-04-18T06:27:33.431Z,13.1
2019-04-18T06:28:35.697Z,13.3
2019-04-18T06:29:39.899Z,13.5
2019-04-18T06:30:41.469Z,13.6
2019-04-18T06:31:43.314Z,13.8
2019-04-18T06:32:44.677Z,14.0
2019-04-18T06:33:46.040Z,14.1
2019-04-18T06:34:47.698Z,14.3
2019-04-18T06:35:50.069Z,14.5
2019-04-18T06:36:50.597Z,14.6
2019-04-18T06:37:51.952Z,14.7
2019-04-18T06:38:53.439Z,14.8
2019-04-18T06:39:57.496Z,14.9
2019-04-18T06:40:56.168Z,15.0
2019-04-18T06:42:01.624Z,15.0
2019-04-18T06:42:58.863Z,15.1
2019-04-18T06:44:00.239Z,15.1
2019-04-18T06:45:03.187Z,15.2
2019-04-18T06:46:03.114Z,15.2
2019-04-18T06:47:04.466Z,15.4
2019-04-18T06:48:06.434Z,15.6
2019-04-18T06:49:10.719Z,15.7
2019-04-18T06:50:09.016Z,15.8
2019-04-18T06:51:09.820Z,15.8
2019-04-18T06:52:11.179Z,15.8
2019-04-18T06:53:13.110Z,15.9
2019-04-18T06:54:13.965Z,16.0
2019-04-18T06:55:15.647Z,16.1
2019-04-18T06:56:17.799Z,16.1
2019-04-18T06:57:19.430Z,16.1
2019-04-18T06:58:34.217Z,16.2
2019-04-18T06:59:22.090Z,16.2
2019-04-18T07:00:25.066Z,16.2
2019-04-18T07:01:23.169Z,16.1
2019-04-18T07:02:24.529Z,16.3
2019-04-18T07:03:25.908Z,16.5
2019-04-18T07:04:28.770Z,16.6
2019-04-18T07:05:28.654Z,16.8
2019-04-18T07:06:33.258Z,16.8
2019-04-18T07:07:38.144Z,16.8
2019-04-18T07:08:43.993Z,16.9
2019-04-18T07:09:51.703Z,16.9
2019-04-18T07:10:35.908Z,17.1
2019-04-18T07:11:37.291Z,17.0
2019-04-18T07:12:40.340Z,17.1
2019-04-18T07:13:39.993Z,16.9
2019-04-18T07:14:41.355Z,17.0
2019-04-18T07:15:42.714Z,17.0
2019-04-18T07:16:45.010Z,16.9
2019-04-18T07:17:45.458Z,16.9
2019-04-18T07:18:46.822Z,16.7
2019-04-18T07:19:48.192Z,16.8
2019-04-18T07:20:51.682Z,16.9
2019-04-18T07:21:50.913Z,17.0
2019-04-18T07:22:52.289Z,17.1
2019-04-18T07:23:53.661Z,17.1
2019-04-18T07:24:55.032Z,17.2
2019-04-18T07:25:56.403Z,17.2
2019-04-18T07:26:57.783Z,17.4
2019-04-18T07:28:01.259Z,17.6
2019-04-18T07:29:40.018Z,17.7
2019-04-18T07:30:44.479Z,17.6
2019-04-18T07:31:42.719Z,17.6
2019-04-18T07:32:44.089Z,17.6
2019-04-18T07:33:45.510Z,17.5
2019-04-18T07:34:46.833Z,17.5
2019-04-18T07:35:48.214Z,17.4
2019-04-18T07:36:49.581Z,17.4
2019-04-18T07:37:51.524Z,17.4
2019-04-18T07:38:52.302Z,17.5
2019-04-18T07:39:53.667Z,17.6
2019-04-18T07:40:55.121Z,17.8
2019-04-18T07:41:56.438Z,17.7
2019-04-18T07:42:57.812Z,17.6
2019-04-18T07:43:59.187Z,17.6
2019-04-18T07:45:00.562Z,17.5
2019-04-18T07:46:01.938Z,17.5
2019-04-18T07:47:04.203Z,17.5
2019-04-18T07:48:04.651Z,17.7
2019-04-18T07:49:06.024Z,17.7
2019-04-18T07:50:08.028Z,18.0
2019-04-18T07:51:08.799Z,18.2
2019-04-18T07:52:10.082Z,18.3
2019-04-18T07:53:11.784Z,18.5
2019-04-18T07:54:13.092Z,18.5
2019-04-18T07:55:14.153Z,18.5
2019-04-18T07:56:15.882Z,18.5
2019-04-18T07:57:21.273Z,18.4
2019-04-18T07:58:18.171Z,18.2
2019-04-18T07:59:20.004Z,18.1
2019-04-18T08:00:21.417Z,18.2
2019-04-18T08:01:22.806Z,18.3
2019-04-18T08:02:23.550Z,18.3
2019-04-18T08:03:39.221Z,18.4
2019-04-18T08:04:26.275Z,18.3
2019-04-18T08:05:27.644Z,18.5
2019-04-18T08:06:29.025Z,18.5
2019-04-18T08:07:30.409Z,18.6
2019-04-18T08:08:31.783Z,18.8
2019-04-18T08:09:38.717Z,18.9
2019-04-18T08:10:34.495Z,18.9
2019-04-18T08:11:35.870Z,18.8
2019-04-18T08:12:40.241Z,18.9
2019-04-18T08:13:38.579Z,18.8
2019-04-18T08:14:39.955Z,18.8
2019-04-18T08:15:41.323Z,18.8
2019-04-18T08:16:42.703Z,18.8
2019-04-18T08:17:44.078Z,18.7
2019-04-18T08:18:45.463Z,18.7
2019-04-18T08:19:46.833Z,18.7
2019-04-18T08:20:48.213Z,18.8
2019-04-18T08:21:49.591Z,18.9
2019-04-18T08:22:50.960Z,18.9
2019-04-18T08:23:52.337Z,18.9
2019-04-18T08:24:53.723Z,18.9
2019-04-18T08:25:55.911Z,18.7
2019-04-18T08:26:56.449Z,18.5
2019-04-18T08:27:57.803Z,18.5
2019-04-18T08:29:01.749Z,18.5
2019-04-18T08:30:00.505Z,18.4
2019-04-18T08:31:02.014Z,18.5
2019-04-18T08:32:04.155Z,18.5
2019-04-18T08:33:04.557Z,18.5
2019-04-18T08:34:05.943Z,18.6
2019-04-18T08:35:07.314Z,18.6
2019-04-18T08:36:08.686Z,18.8
2019-04-18T08:37:10.061Z,18.8
2019-04-18T08:38:11.446Z,18.7
2019-04-18T08:39:13.081Z,18.8
2019-04-18T08:40:14.154Z,18.8
2019-04-18T08:41:15.528Z,18.7
2019-04-18T08:42:17.157Z,18.8
2019-04-18T08:43:18.614Z,18.8
2019-04-18T08:44:23.313Z,18.8
2019-04-18T08:45:21.037Z,18.8
2019-04-18T08:46:22.725Z,18.7
2019-04-18T08:47:23.718Z,18.8
2019-04-18T08:48:25.200Z,18.8
2019-04-18T08:49:26.429Z,19.0
2019-04-18T08:50:27.798Z,19.0
2019-04-18T08:51:29.168Z,19.1
2019-04-18T08:52:30.537Z,19.1
2019-04-18T08:53:47.455Z,19.2
2019-04-18T08:54:33.259Z,19.2
2019-04-18T08:55:34.671Z,19.1
2019-04-18T08:56:36.917Z,19.0
2019-04-18T08:57:37.393Z,19.0
2019-04-18T08:58:38.742Z,19.0
2019-04-18T08:59:40.138Z,18.9
2019-04-18T09:00:41.490Z,18.9
2019-04-18T09:01:42.874Z,19.1
2019-04-18T09:02:44.249Z,19.0
2019-04-18T09:03:45.610Z,19.0
2019-04-18T09:04:47.441Z,19.0
2019-04-18T09:05:49.755Z,19.2
2019-04-18T09:06:52.229Z,19.2
2019-04-18T09:07:51.701Z,19.2
2019-04-18T09:08:53.742Z,19.3
2019-04-18T09:09:54.487Z,19.3
2019-04-18T09:10:55.793Z,19.1
2019-04-18T09:12:01.157Z,19.0
2019-04-18T09:12:57.900Z,18.9
2019-04-18T09:14:04.986Z,18.8
2019-04-18T09:15:00.691Z,19.0
2019-04-18T09:16:02.772Z,19.1
2019-04-18T09:17:03.614Z,19.1
2019-04-18T09:18:09.816Z,19.1
2019-04-18T09:19:06.703Z,19.1
2019-04-18T09:20:11.392Z,19.2
2019-04-18T09:21:17.957Z,19.4
2019-04-18T09:22:10.567Z,19.4
2019-04-18T09:23:12.680Z,19.3
2019-04-18T09:24:19.385Z,19.2
2019-04-18T09:25:14.140Z,19.2
2019-04-18T09:26:15.576Z,19.1
2019-04-18T09:27:20.684Z,19.0
2019-04-18T09:28:17.891Z,18.9
2019-04-18T09:29:19.229Z,19.0
2019-04-18T09:30:24.467Z,19.0
2019-04-18T09:31:22.149Z,19.1
2019-04-18T09:32:23.309Z,19.1
2019-04-18T09:33:25.869Z,19.1
2019-04-18T09:34:29.264Z,19.1
2019-04-18T09:35:27.371Z,19.1
2019-04-18T09:36:30.864Z,19.1
2019-04-18T09:37:30.090Z,19.0
2019-04-18T09:38:33.289Z,19.0
2019-04-18T09:39:32.795Z,19.0
2019-04-18T09:40:34.163Z,19.0
2019-04-18T09:41:35.539Z,19.1
2019-04-18T09:42:36.925Z,19.1
2019-04-18T09:43:40.451Z,19.1
2019-04-18T09:44:39.633Z,19.1
2019-04-18T09:45:41.023Z,19.2
2019-04-18T09:46:42.711Z,19.3
2019-04-18T09:47:43.734Z,19.3
2019-04-18T09:48:45.107Z,19.4
2019-04-18T09:49:46.485Z,19.4
2019-04-18T09:50:48.935Z,19.4
2019-04-18T09:51:49.210Z,19.5
2019-04-18T09:52:50.594Z,19.4
2019-04-18T09:53:51.970Z,19.5
2019-04-18T09:54:53.393Z,19.3
2019-04-18T09:55:54.724Z,19.2
2019-04-18T09:56:56.100Z,19.3
2019-04-18T09:57:57.489Z,19.2
2019-04-18T09:58:58.858Z,19.3
2019-04-18T10:00:09.965Z,19.2
2019-04-18T10:01:01.561Z,19.2
2019-04-18T10:02:02.937Z,19.2
2019-04-18T10:03:04.320Z,19.0
2019-04-18T10:04:06.805Z,19.1
2019-04-18T10:05:21.863Z,19.1
2019-04-18T10:06:08.387Z,19.2
2019-04-18T10:07:09.740Z,19.2
2019-04-18T10:08:11.107Z,19.2
2019-04-18T10:09:12.997Z,19.3
2019-04-18T10:10:13.824Z,19.3
2019-04-18T10:11:17.902Z,19.4
2019-04-18T10:12:17.153Z,19.5
2019-04-18T10:13:17.968Z,19.5
2019-04-18T10:14:19.675Z,19.5
2019-04-18T10:15:25.721Z,19.6
2019-04-18T10:16:22.119Z,19.6
2019-04-18T10:17:23.388Z,19.6
2019-04-18T10:18:25.518Z,19.6
2019-04-18T10:19:26.095Z,19.5
2019-04-18T10:20:29.082Z,19.6
2019-04-18T10:21:28.811Z,19.5
2019-04-18T10:22:30.209Z,19.5
2019-04-18T10:23:31.585Z,19.5
2019-04-18T10:24:32.973Z,19.6
2019-04-18T10:25:36.255Z,19.6
2019-04-18T10:26:35.686Z,19.6
2019-04-18T10:27:37.065Z,19.6
2019-04-18T10:28:38.449Z,19.6
2019-04-18T10:29:39.826Z,19.6
2019-04-18T10:30:41.197Z,19.6
2019-04-18T10:31:42.572Z,19.6
2019-04-18T10:32:43.956Z,19.6
2019-04-18T10:33:45.341Z,19.7
2019-04-18T10:34:46.713Z,19.6
2019-04-18T10:35:48.106Z,19.6
2019-04-18T10:36:49.485Z,19.6
2019-04-18T10:37:50.859Z,19.6
2019-04-18T10:38:52.704Z,19.7
2019-04-18T10:39:53.592Z,19.7
2019-04-18T10:40:54.973Z,19.7
2019-04-18T10:41:56.354Z,19.8
2019-04-18T10:42:57.726Z,19.8
2019-04-18T10:43:59.101Z,19.9
2019-04-18T10:45:00.477Z,20.0
2019-04-18T10:46:01.857Z,20.1
2019-04-18T10:47:03.236Z,20.1
2019-04-18T10:48:04.619Z,20.0
2019-04-18T10:49:05.996Z,20.2
2019-04-18T10:50:07.374Z,20.3
2019-04-18T10:51:08.761Z,20.2
2019-04-18T10:52:10.152Z,20.1
2019-04-18T10:53:11.530Z,20.0
2019-04-18T10:54:12.951Z,20.1
2019-04-18T10:55:14.339Z,20.1
2019-04-18T10:56:15.711Z,20.0
2019-04-18T10:57:17.089Z,20.1
2019-04-18T10:58:18.467Z,20.2
2019-04-18T10:59:20.487Z,20.3
2019-04-18T11:00:21.192Z,20.2
2019-04-18T11:01:22.559Z,20.2
2019-04-18T11:02:23.937Z,20.3
2019-04-18T11:03:25.320Z,20.3
2019-04-18T11:04:29.453Z,20.5
2019-04-18T11:05:31.182Z,20.6
2019-04-18T11:06:32.255Z,20.7
2019-04-18T11:07:30.722Z,20.7
2019-04-18T11:08:32.104Z,20.6
2019-04-18T11:09:33.471Z,20.6
2019-04-18T11:10:34.850Z,20.7
2019-04-18T11:11:36.227Z,20.5
2019-04-18T11:12:37.600Z,20.6
2019-04-18T11:13:38.987Z,20.5
2019-04-18T11:14:40.384Z,20.5
2019-04-18T11:15:41.807Z,20.5
2019-04-18T11:16:43.196Z,20.6
2019-04-18T11:17:44.582Z,20.4
2019-04-18T11:18:45.958Z,20.6
2019-04-18T11:19:47.331Z,20.5
2019-04-18T11:20:48.710Z,20.7
2019-04-18T11:21:50.084Z,20.7
2019-04-18T11:22:51.464Z,20.7
2019-04-18T11:23:52.851Z,20.8
2019-04-18T11:24:54.225Z,20.9
2019-04-18T11:25:56.414Z,20.9
2019-04-18T11:26:56.941Z,20.8
2019-04-18T11:27:58.317Z,21.0
2019-04-18T11:28:59.701Z,21.0
2019-04-18T11:30:01.092Z,21.1
2019-04-18T11:31:02.473Z,20.9
2019-04-18T11:32:04.247Z,20.9
2019-04-18T11:33:05.726Z,20.9
2019-04-18T11:34:07.245Z,20.9
2019-04-18T11:35:08.543Z,20.9
2019-04-18T11:36:09.676Z,20.9
2019-04-18T11:37:10.970Z,21.0
2019-04-18T11:38:11.919Z,21.0
2019-04-18T11:39:13.316Z,20.9
2019-04-18T11:40:14.692Z,20.9
2019-04-18T11:41:16.092Z,20.8
2019-04-18T11:42:17.466Z,20.7
2019-04-18T11:43:18.836Z,20.6
2019-04-18T11:44:20.216Z,20.6
2019-04-18T11:45:21.605Z,20.7
2019-04-18T11:46:22.990Z,20.7
2019-04-18T11:47:24.366Z,20.7
2019-04-18T11:48:25.755Z,20.8
2019-04-18T11:49:27.131Z,21.0
2019-04-18T11:50:28.514Z,21.0
2019-04-18T11:51:29.886Z,21.3
2019-04-18T11:52:31.261Z,21.3
2019-04-18T11:53:32.652Z,21.2
2019-04-18T11:54:34.046Z,21.3
2019-04-18T11:55:35.419Z,21.4
2019-04-18T11:56:36.800Z,21.5
2019-04-18T11:57:38.183Z,21.5
2019-04-18T11:58:39.591Z,21.5
2019-04-18T11:59:40.976Z,21.5
2019-04-18T12:00:42.353Z,21.4
2019-04-18T12:01:43.738Z,21.4
2019-04-18T12:02:45.121Z,21.4
2019-04-18T12:03:46.495Z,21.4
2019-04-18T12:04:47.873Z,21.5
2019-04-18T12:05:50.993Z,21.4
2019-04-18T12:06:50.596Z,21.5
2019-04-18T12:07:51.989Z,21.5
2019-04-18T12:08:53.371Z,21.4
2019-04-18T12:09:54.745Z,21.4
2019-04-18T12:10:56.115Z,21.4
2019-04-18T12:11:57.501Z,21.6
2019-04-18T12:13:00.654Z,21.7
2019-04-18T12:14:00.233Z,21.6
2019-04-18T12:15:01.827Z,21.7
2019-04-18T12:16:03.876Z,21.6
2019-04-18T12:17:04.887Z,21.7
2019-04-18T12:18:05.659Z,21.7
2019-04-18T12:19:07.043Z,21.6
2019-04-18T12:20:08.444Z,21.7
2019-04-18T12:21:10.344Z,21.7
2019-04-18T12:22:11.159Z,21.6
2019-04-18T12:23:12.537Z,21.6
2019-04-18T12:24:13.927Z,21.6
2019-04-18T12:25:17.324Z,21.6
2019-04-18T12:26:16.638Z,21.7
2019-04-18T12:27:18.027Z,21.7
2019-04-18T12:28:19.398Z,21.7
2019-04-18T12:29:20.779Z,21.7
2019-04-18T12:30:22.168Z,21.7
2019-04-18T12:31:30.621Z,21.8
2019-04-18T12:32:24.895Z,21.8
2019-04-18T12:33:26.271Z,21.8
2019-04-18T12:34:27.657Z,21.9
2019-04-18T12:35:29.036Z,22.0
2019-04-18T12:36:30.422Z,21.9
2019-04-18T12:37:34.146Z,21.8
2019-04-18T12:38:33.146Z,21.7
2019-04-18T12:39:34.536Z,21.7
2019-04-18T12:40:35.916Z,21.8
2019-04-18T12:41:37.288Z,21.7
2019-04-18T12:42:38.671Z,21.6
2019-04-18T12:43:40.043Z,21.5
2019-04-18T12:44:41.423Z,21.7
2019-04-18T12:45:42.821Z,21.8
2019-04-18T12:46:44.201Z,21.8
2019-04-18T12:47:45.582Z,21.9
2019-04-18T12:48:46.972Z,21.9
2019-04-18T12:49:48.348Z,22.0
2019-04-18T12:50:49.717Z,22.0
2019-04-18T12:51:51.112Z,22.0
2019-04-18T12:52:52.485Z,22.0
2019-04-18T12:53:53.867Z,21.9
2019-04-18T12:54:55.238Z,21.9
2019-04-18T12:55:58.035Z,21.9
2019-04-18T12:56:58.003Z,22.0
2019-04-18T12:57:59.379Z,22.1
2019-04-18T12:59:00.754Z,22.0
2019-04-18T13:00:02.521Z,22.1
2019-04-18T13:01:03.483Z,22.1
2019-04-18T13:02:04.896Z,22.0
2019-04-18T13:03:06.247Z,22.0
2019-04-18T13:04:07.640Z,22.1
2019-04-18T13:05:09.089Z,22.1
2019-04-18T13:06:10.857Z,22.1
2019-04-18T13:07:11.681Z,22.0
2019-04-18T13:08:13.069Z,22.1
2019-04-18T13:09:14.444Z,22.1
2019-04-18T13:10:15.823Z,22.2
2019-04-18T13:11:17.208Z,22.3
2019-04-18T13:12:18.608Z,22.3
2019-04-18T13:13:20.016Z,22.4
2019-04-18T13:14:21.388Z,22.4
2019-04-18T13:15:22.765Z,22.4
2019-04-18T13:16:24.164Z,22.3
2019-04-18T13:17:25.542Z,22.4
2019-04-18T13:18:26.923Z,22.4
2019-04-18T13:19:28.313Z,22.4
2019-04-18T13:20:29.688Z,22.3
2019-04-18T13:21:31.118Z,22.3
2019-04-18T13:22:32.488Z,22.3
2019-04-18T13:23:34.082Z,22.3
2019-04-18T13:24:35.462Z,22.2
2019-04-18T13:25:36.839Z,22.3
2019-04-18T13:26:38.222Z,22.4
2019-04-18T13:27:39.614Z,22.4
2019-04-18T13:28:40.998Z,22.4
2019-04-18T13:30:21.912Z,22.5
2019-04-18T13:31:23.295Z,22.5
2019-04-18T13:32:24.697Z,22.5
2019-04-18T13:33:26.077Z,22.4
2019-04-18T13:34:27.457Z,22.4
2019-04-18T13:35:28.844Z,22.4
2019-04-18T13:36:30.266Z,22.4
2019-04-18T13:37:31.717Z,22.3
2019-04-18T13:38:33.154Z,22.2